Latest Weather Observations for Forbes

IDN60801

Issued at 4:32 pm EDT Sunday 26 February 2017 (issued every 30 minutes, with the page automatically refreshed every 10 minutes)

About weather observations | Map of weather stations | Latest weather observations for NSW | Other Formats
Station Details ID: 065103 Name: FORBES AIRPORT AWS Lat: -33.36 Lon: 147.92 Height: 230.4 m
Data from the previous 72 hours. | See also: Recent months at Forbes
Date/Time
EDT
Temp
°C
App
Temp
°C
Dew
Point
°C
Rel
Hum
%
Delta-T
°C
Wind Press
QNH
hPa
Press
MSL
hPa
Rain since
9am
mm
Dir  Spd
km/h
Gust
km/h
Spd
kts
Gust
kts
26/04:30pm 31.5 28.0 10.2 27 12.3 E 19 28 10 15 1016.2 1015.0 0.0
26/04:00pm 31.6 29.6 10.3 27 12.3 ESE 11 20 6 11 1016.4 1015.2 0.0
26/03:30pm 31.6 28.1 10.9 28 12.1 ESE 20 30 11 16 1016.8 1015.6 0.0
26/03:00pm 30.8 28.2 10.7 29 11.6 ESE 15 26 8 14 1017.1 1015.9 0.0
26/02:30pm 31.1 29.1 11.5 30 11.5 ENE 13 24 7 13 1017.4 1016.2 0.0
26/02:00pm 30.8 28.9 11.7 31 11.2 E 13 24 7 13 1018.0 1016.7 0.0
26/01:30pm 28.8 26.3 10.9 33 10.3 ENE 15 28 8 15 1018.3 1017.0 0.0
26/01:00pm 30.0 27.2 11.5 32 10.8 E 17 28 9 15 1018.6 1017.3 0.0
26/12:30pm 28.8 26.0 11.4 34 10.1 ENE 17 32 9 17 1019.0 1017.8 0.0
26/12:00pm 28.2 25.1 11.7 36 9.6 ENE 19 33 10 18 1019.2 1018.0 0.0
26/11:30am 27.9 24.4 12.3 38 9.2 E 22 35 12 19 1019.8 1018.6 0.0
26/11:00am 26.7 22.9 12.4 41 8.3 E 24 33 13 18 1020.1 1018.9 0.0
26/10:30am 26.3 22.8 13.4 45 7.7 E 24 33 13 18 1020.3 1019.1 0.0
26/10:00am 25.2 21.3 13.4 48 7.0 ENE 26 37 14 20 1020.0 1018.8 0.0
26/09:30am 23.7 20.6 13.3 52 6.1 E 22 30 12 16 1019.8 1018.6 0.0
26/09:00am 22.6 18.4 13.4 56 5.4 E 28 35 15 19 1019.6 1018.4 0.0
26/08:30am 21.4 17.2 13.6 61 4.5 ESE 28 37 15 20 1019.4 1018.2 0.0
26/08:00am 20.4 17.4 13.6 65 3.9 ESE 22 30 12 16 1019.4 1018.2 0.0
26/07:30am 19.2 17.4 13.2 68 3.4 ESE 15 22 8 12 1019.1 1017.9 0.0
26/07:00am 18.2 16.6 12.9 71 3.0 ESE 13 19 7 10 1018.5 1017.2 0.0
26/06:30am 18.4 16.4 12.8 70 3.2 ESE 15 17 8 9 1018.2 1016.9 0.0
26/06:00am 18.5 16.6 12.9 70 3.2 ESE 15 19 8 10 1017.9 1016.6 0.0
26/05:30am 18.5 16.2 12.9 70 3.2 ESE 17 22 9 12 1017.1 1015.9 0.0
26/05:00am 18.6 16.2 12.8 69 3.3 ESE 17 22 9 12 1016.9 1015.7 0.0
26/04:30am 18.6 17.1 13.0 70 3.2 ESE 13 19 7 10 1017.1 1015.9 0.0
26/04:00am 18.7 17.1 12.9 69 3.3 SE 13 19 7 10 1017.2 1016.0 0.0
26/03:30am 18.9 17.0 12.9 68 3.4 ESE 15 19 8 10 1017.3 1016.1 0.0
26/03:00am 19.3 17.3 12.8 66 3.7 ESE 15 22 8 12 1017.4 1016.2 0.0
26/02:30am 19.8 17.5 13.0 65 3.9 ESE 17 26 9 14 1017.5 1016.3 0.0
26/02:00am 20.2 17.4 13.2 64 4.0 ESE 20 28 11 15 1017.6 1016.4 0.0
26/01:30am 20.4 16.8 13.1 63 4.2 ESE 24 30 13 16 1017.7 1016.5 0.0
26/01:00am 20.4 17.9 13.4 64 4.0 ESE 19 26 10 14 1017.9 1016.6 0.0
26/12:30am 20.6 18.4 13.3 63 4.2 ESE 17 24 9 13 1017.7 1016.5 0.0
26/12:00am 20.9 18.2 13.4 62 4.3 ESE 20 30 11 16 1017.3 1016.1 0.0
 
Date/Time
EDT
Temp
°C
App
Temp
°C
Dew
Point
°C
Rel
Hum
%
Delta-T
°C
Wind Press
QNH
hPa
Press
MSL
hPa
Rain since
9am
mm
Dir  Spd
km/h
Gust
km/h
Spd
kts
Gust
kts
25/11:30pm 21.3 18.6 13.5 61 4.5 ESE 20 28 11 15 1017.1 1015.9 0.0
25/11:00pm 21.6 18.9 13.5 60 4.7 ESE 20 35 11 19 1017.0 1015.8 0.0
25/10:30pm 22.2 18.7 13.5 57 5.1 ESE 24 37 13 20 1016.7 1015.5 0.0
25/10:00pm 23.1 19.0 13.8 55 5.5 ESE 28 39 15 21 1016.4 1015.2 0.0
25/09:30pm 24.2 20.9 14.0 53 6.1 ESE 24 37 13 20 1015.8 1014.6 0.0
25/09:00pm 25.0 21.4 14.2 51 6.5 E 26 37 14 20 1015.2 1014.0 0.0
25/08:30pm 26.0 20.9 13.2 45 7.6 E 32 43 17 23 1014.4 1013.1 0.0
25/08:00pm 27.5 24.5 13.8 43 8.2 ESE 22 32 12 17 1014.0 1012.7 0.0
25/07:30pm 29.1 26.4 11.6 33 10.2 S 17 33 9 18 1013.6 1012.3 0.0
25/07:00pm 31.9 27.3 3.8 17 14.6 SSW 17 22 9 12 1013.0 1011.8 0.0
25/06:30pm 32.5 27.8 5.1 18 14.6 SW 19 24 10 13 1013.0 1011.8 0.0
25/06:00pm 33.6 29.6 6.8 19 14.8 SW 17 20 9 11 1013.0 1011.8 0.0
25/05:30pm 33.7 30.5 5.3 17 15.3 W 11 19 6 10 1012.9 1011.7 0.0
25/05:00pm 33.1 31.0 5.6 18 14.9 SW 6 13 3 7 1013.2 1012.0 0.0
25/04:30pm 33.5 28.5 -1.0 11 16.8 WSW 15 22 8 12 1013.5 1012.2 0.0
25/04:00pm 33.7 28.9 4.4 16 15.6 WSW 19 26 10 14 1013.9 1012.6 0.0
25/03:30pm 33.3 30.2 8.7 22 14.0 WSW 15 24 8 13 1014.3 1013.0 0.0
25/03:00pm 32.8 29.9 9.6 24 13.3 WSW 15 24 8 13 1014.7 1013.4 0.0
25/02:30pm 32.8 29.8 10.8 26 12.9 WSW 17 22 9 12 1015.1 1013.8 0.0
25/02:00pm 32.1 29.3 11.3 28 12.2 SW 17 32 9 17 1015.4 1014.2 0.0
25/01:30pm 31.4 30.5 11.2 29 11.8 W 7 15 4 8 1015.8 1014.6 0.0
25/01:00pm 32.1 30.4 12.3 29 11.8 NW 13 26 7 14 1015.8 1014.6 0.0
25/12:30pm 30.5 29.1 11.0 30 11.3 NNW 9 22 5 12 1016.5 1015.3 0.0
25/12:00pm 30.1 28.7 13.4 36 10.1 NE 13 19 7 10 1016.9 1015.7 0.0
25/11:30am 28.7 27.8 13.8 40 9.0 NNE 11 20 6 11 1017.4 1016.2 0.0
25/11:00am 28.0 27.4 14.6 44 8.1 NE 11 20 6 11 1017.7 1016.5 0.0
25/10:30am 27.5 27.1 15.2 47 7.5 NE 11 19 6 10 1018.0 1016.7 0.0
25/10:00am 25.7 24.8 14.8 51 6.6 NNE 13 22 7 12 1018.2 1016.9 0.0
25/09:30am 24.8 24.4 14.0 51 6.4 NE 9 15 5 8 1018.1 1016.8 0.0
25/09:00am 23.5 23.1 13.1 52 6.1 NE 7 11 4 6 1018.1 1016.8 0.0
25/08:30am 22.5 22.1 13.0 55 5.5 NE 7 11 4 6 1018.0 1016.7 0.0
25/08:00am 20.1 19.8 12.8 63 4.2 ENE 6 7 3 4 1017.7 1016.5 0.0
25/07:30am 16.7 15.8 11.4 71 2.9 ENE 7 9 4 5 1017.6 1016.4 0.0
25/07:00am 14.6 14.6 9.8 73 2.5 CALM 0 0 0 0 1017.3 1016.1 0.0
25/06:30am 14.7 14.8 10.1 74 2.4 CALM 0 0 0 0 1017.2 1016.0 0.0
25/06:00am 16.1 15.4 11.9 76 2.3 SE 7 9 4 5 1016.8 1015.6 0.0
25/05:30am 15.4 14.9 9.3 67 3.2 SE 2 7 1 4 1016.4 1015.2 0.0
25/05:00am 16.2 15.6 10.5 69 3.1 SE 4 9 2 5 1016.1 1014.9 0.0
25/04:30am 17.3 15.7 10.2 63 3.8 SSE 9 13 5 7 1016.1 1014.9 0.0
25/04:00am 18.3 15.9 10.2 59 4.4 S 13 15 7 8 1016.1 1014.9 0.0
25/03:30am 17.7 15.1 6.3 47 5.7 SSW 9 11 5 6 1016.2 1015.0 0.0
25/03:00am 18.2 15.3 4.4 40 6.6 SSW 9 11 5 6 1016.1 1014.9 0.0
25/02:30am 18.7 15.1 2.9 35 7.4 SSW 11 15 6 8 1016.1 1014.9 0.0
25/02:00am 20.6 16.5 2.4 30 8.6 S 13 19 7 10 1016.4 1015.2 0.0
25/01:30am 21.4 17.3 2.2 28 9.1 S 13 19 7 10 1016.7 1015.5 0.0
25/01:00am 22.7 17.3 2.2 26 9.8 SSW 20 24 11 13 1016.8 1015.6 0.0
25/12:30am 23.0 17.5 1.9 25 10.0 S 20 24 11 13 1016.9 1015.7 0.0
25/12:00am 24.1 18.6 1.7 23 10.7 S 20 28 11 15 1016.9 1015.7 0.0
 
Date/Time
EDT
Temp
°C
App
Temp
°C
Dew
Point
°C
Rel
Hum
%
Delta-T
°C
Wind Press
QNH
hPa
Press
MSL
hPa
Rain since
9am
mm
Dir  Spd
km/h
Gust
km/h
Spd
kts
Gust
kts
24/11:30pm 25.3 19.0 1.4 21 11.4 S 24 33 13 18 1017.0 1015.8 0.0
24/11:00pm 25.8 20.1 0.5 19 11.9 SSW 20 28 11 15 1017.0 1015.8 0.0
24/10:30pm 25.0 20.0 1.2 21 11.3 SSW 17 24 9 13 1017.1 1015.9 0.0
24/10:00pm 24.7 20.6 2.2 23 10.9 SSW 13 17 7 9 1017.0 1015.8 0.0
24/09:30pm 25.8 21.6 1.8 21 11.6 SSW 13 17 7 9 1016.9 1015.7 0.0
24/09:00pm 26.1 21.9 1.4 20 11.9 SSW 13 15 7 8 1016.7 1015.5 0.0
24/08:30pm 27.0 23.0 0.7 18 12.6 SSW 11 15 6 8 1016.3 1015.1 0.0
24/08:00pm 29.5 25.1 0.2 15 14.1 SSW 13 17 7 9 1015.9 1014.7 0.0
24/07:30pm 31.8 26.6 0.0 13 15.5 SSW 17 20 9 11 1015.6 1014.4 0.0
24/07:00pm 33.2 27.6 0.0 12 16.4 SSW 19 28 10 15 1015.5 1014.3 0.0
24/06:30pm 34.2 28.7 1.9 13 16.5 SW 20 28 11 15 1015.3 1014.1 0.0
24/06:00pm 34.6 28.4 2.2 13 16.7 SW 24 33 13 18 1015.3 1014.1 0.0
24/05:30pm 35.2 29.3 1.5 12 17.2 SSW 22 39 12 21 1015.2 1014.0 0.0
24/05:00pm 36.0 30.9 4.3 14 17.0 SW 20 26 11 14 1015.2 1014.0 0.0
24/04:30pm 35.9 29.7 4.2 14 17.0 SW 26 37 14 20 1015.3 1014.1 0.0
24/04:00pm 36.1 30.5 5.4 15 16.8 SSW 24 39 13 21 1015.3 1014.1 0.0
24/03:30pm 36.3 30.5 4.6 14 17.1 SW 24 39 13 21 1015.6 1014.4 0.0
24/03:00pm 36.3 31.3 4.6 14 17.1 WSW 20 33 11 18 1015.9 1014.7 0.0
24/02:30pm 35.7 30.0 5.1 15 16.6 SW 24 39 13 21 1016.3 1015.1 0.0
24/02:00pm 35.5 30.4 3.9 14 16.8 WSW 20 28 11 15 1016.8 1015.6 0.0
24/01:30pm 35.4 29.7 4.8 15 16.5 WSW 24 33 13 18 1017.1 1015.9 0.0
24/01:00pm 35.0 30.2 5.4 16 16.1 SSW 20 28 11 15 1017.5 1016.3 0.0
24/12:30pm 34.3 29.4 4.9 16 15.8 SW 20 30 11 16 1017.9 1016.6 0.0
24/12:00pm 33.4 28.9 5.9 18 14.9 SW 19 28 10 15 1018.4 1017.1 0.0
24/11:30am 33.2 29.2 6.5 19 14.6 S 17 26 9 14 1018.6 1017.3 0.0
24/11:00am 31.7 27.2 6.0 20 13.8 S 19 26 10 14 1018.9 1017.6 0.0
24/10:30am 30.7 26.4 7.2 23 12.9 S 19 26 10 14 1019.0 1017.8 0.0
24/10:00am 29.2 24.2 6.6 24 12.1 S 22 30 12 16 1019.1 1017.9 0.0
24/09:30am 27.5 23.0 6.8 27 11.1 S 20 28 11 15 1019.0 1017.8 0.0
24/09:00am 25.0 21.1 7.2 32 9.4 S 17 24 9 13 1019.0 1017.8 0.0
24/08:30am 22.5 19.6 6.7 36 8.2 S 11 13 6 7 1018.7 1017.4 0.0
24/08:00am 20.3 19.8 7.7 44 6.5 CALM 0 0 0 0 1018.8 1017.5 0.0
24/07:30am 16.7 16.3 8.4 58 4.3 CALM 0 0 0 0 1018.4 1017.1 0.0
24/07:00am 16.3 15.8 8.0 58 4.2 CALM 0 0 0 0 1017.7 1016.5 0.0
24/06:30am 17.0 16.0 8.7 58 4.3 S 4 9 2 5 1017.4 1016.2 0.0
24/06:00am 16.7 15.0 7.4 54 4.7 SW 6 9 3 5 1017.2 1016.0 0.0
24/05:30am 17.7 17.3 8.3 54 4.9 CALM 0 0 0 0 1017.1 1015.9 0.0
24/05:00am 17.7 17.3 8.3 54 4.9 CALM 0 0 0 0 1016.9 1015.7 0.0
24/04:30am 20.2 18.1 6.5 41 7.0 S 7 9 4 5 1016.8 1015.6 0.0
24/04:00am 22.1 19.5 5.9 35 8.2 SSW 9 13 5 7 1016.7 1015.5 0.0
24/03:30am 19.9 18.0 7.6 45 6.4 SSW 7 9 4 5 1016.8 1015.6 0.0
24/03:00am 18.9 17.4 8.6 51 5.4 S 6 7 3 4 1016.9 1015.7 0.0
24/02:30am 19.2 18.5 8.5 50 5.6 ESE 2 7 1 4 1017.0 1015.8 0.0
24/02:00am 20.1 17.4 7.5 44 6.5 SW 11 15 6 8 1017.0 1015.8 0.0
24/01:30am 20.0 19.0 8.7 48 6.0 SW 4 7 2 4 1017.1 1015.9 0.0
24/01:00am 21.5 19.4 8.1 42 7.1 SW 9 11 5 6 1017.1 1015.9 0.0
24/12:30am 21.3 20.5 6.4 38 7.6 CALM 0 7 0 4 1017.0 1015.8 0.0
24/12:00am 24.3 21.8 6.6 32 9.2 SSE 9 11 5 6 1017.1 1015.9 0.0
 
Date/Time
EDT
Temp
°C
App
Temp
°C
Dew
Point
°C
Rel
Hum
%
Delta-T
°C
Wind Press
QNH
hPa
Press
MSL
hPa
Rain since
9am
mm
Dir  Spd
km/h
Gust
km/h
Spd
kts
Gust
kts
23/11:30pm 24.0 21.7 5.8 31 9.4 SW 7 9 4 5 1017.1 1015.9 0.0
23/11:00pm 26.7 24.5 6.2 27 10.8 SSE 7 11 4 6 1017.1 1015.9 0.0
23/10:30pm 28.2 25.9 5.7 24 11.8 SSE 7 9 4 5 1017.0 1015.8 0.0
23/10:00pm 28.1 26.0 8.4 29 10.8 S 9 15 5 8 1016.9 1015.7 0.0
23/09:30pm 26.1 25.3 8.1 32 9.8 ESE 2 7 1 4 1016.3 1015.1 0.0
23/09:00pm 29.0 28.8 9.2 29 11.1 CALM 0 0 0 0 1015.9 1014.7 0.0
23/08:30pm 29.2 28.9 8.8 28 11.4 CALM 0 0 0 0 1015.7 1014.5 0.0
23/08:00pm 31.2 29.6 8.2 24 12.8 S 6 7 3 4 1015.4 1014.2 0.0
23/07:30pm 34.6 32.7 6.8 18 15.4 SSW 6 7 3 4 1015.2 1014.0 0.0
23/07:00pm 36.7 34.6 6.8 16 16.7 SW 7 11 4 6 1015.1 1013.8 0.0
23/06:30pm 37.1 34.9 8.0 17 16.6 W 9 15 5 8 1015.0 1013.7 0.0
23/06:00pm 36.8 34.2 7.8 17 16.5 NW 11 20 6 11 1014.9 1013.6 0.0
23/05:30pm 37.6 34.8 8.4 17 16.8 W 13 20 7 11 1015.0 1013.7 0.0
23/05:00pm 37.5 33.9 8.3 17 16.8 WSW 17 24 9 13 1015.0 1013.7 0.0

Other Formats:

Comma delimited format used in spreadsheet applications
http://www.bom.gov.au/fwo/IDN60801/IDN60801.94715.axf

JavaScript Object Notation format (JSON) in row-major order
http://www.bom.gov.au/fwo/IDN60801/IDN60801.94715.json